Latest Coastal Weather Observations for Cocos Island

IDW60701

Issued at 11:45 pm WST Thursday 31 July 2014 (issued every 10 minutes, with the page automatically refreshed every 10 minutes)

About coastal observations | Map of coastal stations | Coastal observations for WA | Marine services | Other Formats
Station Details ID: 200284 Name: COCOS ISLAND AIRPORT Lat: -12.19 Lon: 96.83 Height: 3.0 m
Data from the previous 72 hours. | See also: Recent months at Cocos Island
Date/Time
WST
Temp

°C
Wind Pressure Rain
since 9am
mm
Weather Cloud Vis
km
Sea
Height
m
Swell
Dir
 
Speed
knots
Gust
knots
hPa Trend Height
m
Period
s
Dir
31/11:30pm 26.0 ESE 13 16 1013.7 - 13.8 - Partly cloudy 10 - - - -
31/11:00pm 26.0 ESE 13 17 1013.7 - 13.8 - Mostly clear 10 - - - -
31/10:30pm 26.1 ESE 12 15 1013.5 - 13.8 - Partly cloudy 10 - - - -
31/10:00pm 26.1 SE 13 18 1013.4 - 13.8 - Partly cloudy 10 - - - -
31/09:30pm 26.1 SE 13 17 1013.2 - 13.8 - - 10 - - - -
31/09:00pm 26.1 ESE 12 16 1012.9 - 13.8 - Partly cloudy 10 - - - -
31/08:30pm 26.1 SE 12 16 1012.6 - 13.8 - Partly cloudy 10 - - - -
31/08:00pm 26.1 ESE 13 15 1012.5 - 13.8 - - 10 - - - -
31/07:30pm 26.1 SE 12 16 1012.3 - 13.8 - Partly cloudy 10 - - - -
31/07:00pm 26.3 SE 15 19 1011.9 - 13.8 - - - - - - -
31/06:30pm 26.6 SE 15 19 1011.6 - 13.8 - Mostly clear 10 - - - -
31/06:00pm 26.8 ESE 15 19 1011.4 - 13.8 - Partly cloudy 10 - - - -
31/05:30pm 27.0 ESE 15 19 1011.4 - 13.8 - Partly cloudy 10 - - - -
31/05:00pm 27.1 ESE 14 19 1011.4 - 13.8 Fine Partly cloudy 20 - - - -
31/04:30pm 27.1 SE 16 20 1011.4 - 13.8 - Partly cloudy 10 - - - -
31/04:00pm 27.4 ESE 15 20 1011.7 - 13.8 - Mostly clear 10 - - - -
31/03:30pm 27.4 ESE 15 19 1012.1 - 13.8 - Partly cloudy 10 - - - -
31/03:00pm 27.7 ESE 15 20 1012.5 - 13.8 - Partly cloudy 10 - - - -
31/02:30pm 27.1 ESE 13 19 1013.1 - 13.8 - Partly cloudy 10 - - - -
31/02:00pm 26.6 E 11 13 1013.5 - 13.6 Fine Mostly cloudy 15 - - - -
31/01:30pm 25.8 E 13 16 1013.8 - 13.6 - Partly cloudy 10 - - - -
31/01:00pm 25.5 E 15 19 1014.3 - 13.6 - Partly cloudy 10 - - - -
31/12:30pm 24.8 E 21 24 1014.6 - 13.6 - Partly cloudy 10 - - - -
31/12:18pm 24.8 E 17 24 1014.6 - 13.6 - Mostly clear 8 - - - -
31/12:00pm 23.8 E 16 21 1014.8 - 12.6 Showers Partly cloudy 2 - - - -
31/11:40am 24.0 E 16 21 1014.8 - 6.6 Showers Partly cloudy 2 - - - -
31/11:30am 24.0 E 12 17 1014.9 - 4.2 Showers Partly cloudy 3 - - - -
31/11:17am 24.4 E 15 25 1014.7 - 2.0 Showers Mostly clear 4 - - - -
31/11:09am 24.3 E 16 25 1014.8 - 1.6 Showers Partly cloudy 4 - - - -
31/11:07am 24.4 E 16 24 1014.7 - 0.8 Showers Mostly clear 3 - - - -
31/11:00am 25.0 E 16 22 1014.6 - 2.0 Showers Cloudy 6 - - - -
31/10:30am 25.9 E 14 17 1014.8 - 2.0 - Partly cloudy 10 - - - -
31/10:00am 25.9 ESE 15 19 1014.7 - 2.0 - Partly cloudy 10 - - - -
31/09:30am 25.3 ESE 13 17 1014.5 - 2.0 - Mostly clear 10 - - - -
31/09:00am 24.9 ESE 13 23 1014.3 - 2.0 - Partly cloudy 10 - - - -
31/08:54am 24.7 ESE 13 18 1014.2 - 2.0 - Partly cloudy 10 - - - -
31/08:30am 24.0 ESE 15 21 1014.3 - 1.4 Showers Mostly clear 6 - - - -
31/08:16am 24.2 E 15 21 1014.0 - 1.2 Showers Mostly clear 4 - - - -
31/08:11am 24.3 E 16 21 1014.1 - 0.0 Showers Mostly clear 7 - - - -
31/08:00am 25.0 E 13 17 1013.9 - 0.0 Distant precip. Mostly cloudy 14 - - - -
31/07:59am 25.0 E 12 15 1013.9 - 0.0 - Partly cloudy 10 - - - -
31/07:30am 25.5 SE 15 19 1013.5 - 0.0 - Partly cloudy 10 - - - -
31/07:00am 25.5 SE 13 18 1013.4 - 0.0 - Mostly clear 10 - - - -
31/06:30am 25.4 SE 13 18 1013.3 - 0.0 - Partly cloudy 10 - - - -
31/06:00am 25.5 SE 13 17 1013.3 - 0.0 - Partly cloudy 10 - - - -
31/05:30am 25.4 SE 13 18 1013.2 - 0.0 - Partly cloudy 10 - - - -
31/05:00am 25.5 SE 13 17 1013.3 - 0.0 - Cloudy 10 - - - -
31/04:30am 25.5 SE 13 16 1013.5 - 0.0 - Partly cloudy 10 - - - -
31/04:00am 25.4 SE 15 19 1013.5 - 0.0 - Partly cloudy 10 - - - -
31/03:30am 25.4 SE 14 18 1013.6 - 0.0 - Partly cloudy 10 - - - -
31/03:00am 25.5 SE 13 18 1013.9 - 0.0 - Partly cloudy 10 - - - -
31/02:30am 25.5 SE 14 16 1014.3 - 0.0 - Partly cloudy 10 - - - -
31/02:00am 25.6 SE 13 16 1014.7 - 0.0 - Mostly cloudy 10 - - - -
31/01:30am 25.7 SE 15 18 1015.0 - 0.0 - Partly cloudy 10 - - - -
31/01:00am 25.8 SE 12 16 1015.3 - 0.0 - Partly cloudy 10 - - - -
31/12:30am 25.8 SE 12 16 1015.3 - 0.0 - Partly cloudy 10 - - - -
31/12:00am 25.9 SE 13 17 1015.0 - 0.0 - Partly cloudy 10 - - - -
 
Date/Time
WST
Temp

°C
Wind Pressure Rain
since 9am
mm
Weather Cloud Vis
km
Sea
Height
m
Swell
Dir
 
Speed
knots
Gust
knots
hPa Trend Height
m
Period
s
Dir
30/11:30pm 25.9 SE 15 18 1014.9 - 0.0 - Partly cloudy 10 - - - -
30/11:00pm 26.0 SE 15 19 1014.9 - 0.0 - - 10 - - - -
30/10:30pm 26.0 SE 15 19 1014.8 - 0.0 - Partly cloudy 10 - - - -
30/10:00pm 26.1 SE 15 20 1014.6 - 0.0 - Partly cloudy 10 - - - -
30/09:30pm 26.1 SE 13 17 1014.3 - 0.0 - Partly cloudy 10 - - - -
30/09:00pm 26.2 SE 14 19 1013.9 - 0.0 - Partly cloudy 10 - - - -
30/08:30pm 26.1 SE 15 19 1013.6 - 0.0 - Partly cloudy 10 - - - -
30/08:00pm 26.1 SE 15 19 1013.0 - 0.0 - Mostly clear 10 - - - -
30/07:30pm 26.2 SE 14 18 1013.0 - 0.0 - Partly cloudy 10 - - - -
30/07:00pm 26.5 SE 13 18 1012.9 - 0.0 - Partly cloudy 10 - - - -
30/06:30pm 26.4 SE 15 19 1012.7 - 0.0 - Partly cloudy 10 - - - -
30/06:00pm 26.7 ESE 15 18 1012.5 - 0.0 - Mostly clear 10 - - - -
30/05:30pm 27.1 SE 14 18 1012.5 - 0.0 - Mostly clear 10 - - - -
30/05:00pm 26.9 SE 15 18 1012.4 - 0.0 Fine Mostly clear 25 - - - -
30/04:30pm 27.3 SE 15 19 1012.5 - 0.0 - Mostly clear 10 - - - -
30/04:00pm 27.2 SE 15 19 1012.5 - 0.0 - Partly cloudy 10 - - - -
30/03:30pm 27.5 ESE 15 20 1012.6 - 0.0 - Partly cloudy 10 - - - -
30/03:00pm 27.7 ESE 15 19 1012.8 - 0.0 - Partly cloudy 10 - - - -
30/02:30pm 27.5 ESE 14 19 1013.1 - 0.0 - Partly cloudy 10 - - - -
30/02:00pm 27.5 ESE 15 19 1013.3 - 0.0 Fine Partly cloudy 25 - - - -
30/01:30pm 27.5 ESE 15 20 1013.3 - 0.0 - Partly cloudy 10 - - - -
30/01:00pm 27.4 ESE 16 20 1013.5 - 0.0 - Mostly clear 10 - - - -
30/12:30pm 27.7 ESE 15 19 1013.8 - 0.0 - Mostly clear 10 - - - -
30/12:00pm 27.2 ESE 16 21 1014.0 - 0.0 - Partly cloudy 10 - - - -
30/11:30am 27.2 ESE 16 20 1014.0 - 0.0 - Partly cloudy 10 - - - -
30/11:00am 26.5 ESE 15 19 1014.1 - 0.0 Fine Partly cloudy 20 - - - -
30/10:30am 26.2 ESE 15 21 1014.1 - 0.0 - Partly cloudy 10 - - - -
30/10:00am 26.3 ESE 14 19 1014.0 - 0.0 - Partly cloudy 10 - - - -
30/09:30am 26.1 ESE 16 21 1013.8 - 0.0 - Partly cloudy 10 - - - -
30/09:00am 25.7 ESE 17 21 1013.5 - 0.0 - Partly cloudy 10 - - - -
30/08:30am 25.5 ESE 16 19 1013.3 - 0.0 - Partly cloudy 10 - - - -
30/08:00am 25.3 ESE 15 20 1013.0 - 0.0 Fine Partly cloudy 20 - - - -
30/07:30am 25.2 ESE 15 19 1012.9 - 0.0 - Mostly clear 10 - - - -
30/07:00am 25.2 ESE 14 17 1013.0 - 0.0 - Mostly clear 10 - - - -
30/06:30am 25.1 ESE 14 17 1012.9 - 0.0 - - 10 - - - -
30/06:00am 25.1 ESE 13 18 1012.9 - 0.0 - Partly cloudy 10 - - - -
30/05:30am 25.1 ESE 15 19 1012.8 - 0.0 - - 10 - - - -
30/05:00am 25.1 ESE 13 18 1013.0 - 0.0 - Mostly clear 10 - - - -
30/04:30am 25.1 ESE 13 16 1013.3 - 0.0 - - 10 - - - -
30/04:00am 25.2 ESE 14 17 1013.4 - 0.0 - Partly cloudy 10 - - - -
30/03:30am 25.2 ESE 13 17 1013.5 - 0.0 - - 10 - - - -
30/03:00am 25.2 ESE 15 19 1013.4 - 0.0 - - 10 - - - -
30/02:30am 25.2 ESE 14 18 1013.7 - 0.0 - - 10 - - - -
30/02:00am 25.3 ESE 14 19 1014.0 - 0.0 - Mostly clear 10 - - - -
30/01:30am 25.5 ESE 16 21 1014.1 - 0.0 - - 10 - - - -
30/01:00am 25.5 ESE 14 19 1014.4 - 0.0 - - 10 - - - -
30/12:30am 25.6 ESE 14 19 1014.7 - 0.0 - - 10 - - - -
30/12:00am 25.7 ESE 16 21 1014.5 - 0.0 - - 10 - - - -
 
Date/Time
WST
Temp

°C
Wind Pressure Rain
since 9am
mm
Weather Cloud Vis
km
Sea
Height
m
Swell
Dir
 
Speed
knots
Gust
knots
hPa Trend Height
m
Period
s
Dir
29/11:30pm 25.7 ESE 16 21 1014.4 - 0.0 - Partly cloudy 10 - - - -
29/11:00pm 25.8 ESE 17 20 1014.3 - 0.0 - - 10 - - - -
29/10:30pm 25.9 ESE 16 21 1014.2 - 0.0 - Partly cloudy 10 - - - -
29/10:00pm 26.0 ESE 16 21 1014.1 - 0.0 - Cloudy 10 - - - -
29/09:30pm 26.1 ESE 17 23 1013.8 - 0.0 - Partly cloudy 10 - - - -
29/09:00pm 26.2 ESE 17 23 1013.6 - 0.0 - Cloudy 10 - - - -
29/08:30pm 26.2 ESE 16 20 1013.3 - 0.0 - - 10 - - - -
29/08:00pm 26.2 ESE 16 21 1012.9 - 0.0 - Mostly cloudy 10 - - - -
29/07:30pm 26.2 ESE 16 21 1012.8 - 0.0 - Partly cloudy 10 - - - -
29/07:00pm 26.3 ESE 16 21 1012.5 - 0.0 - Partly cloudy 10 - - - -
29/06:30pm 26.4 ESE 17 23 1012.3 - 0.0 - Mostly clear 10 - - - -
29/06:00pm 26.6 E 15 21 1012.1 - 0.0 - Mostly clear 10 - - - -
29/05:30pm 26.7 ESE 16 23 1012.0 - 0.0 - Mostly clear 10 - - - -
29/05:00pm 26.8 ESE 18 22 1011.8 - 0.0 Fine Mostly cloudy 20 - - - -
29/04:30pm 27.2 ESE 17 22 1011.9 - 0.0 - Mostly clear 10 - - - -
29/04:00pm 27.1 ESE 18 24 1011.9 - 0.0 - Mostly clear 10 - - - -
29/03:30pm 27.4 ESE 19 26 1012.1 - 0.0 - Mostly clear 10 - - - -
29/03:00pm 27.5 ESE 18 23 1012.4 - 0.0 - Mostly clear 10 - - - -
29/02:30pm 27.0 ESE 19 23 1012.9 - 0.0 - Mostly clear 10 - - - -
29/02:00pm 27.4 ESE 19 25 1013.1 - 0.0 Fine Mostly cloudy 17 - - - -
29/01:30pm 27.2 ESE 19 24 1013.4 - 0.0 - Mostly clear 10 - - - -
29/01:00pm 26.7 ESE 19 26 1013.9 - 0.0 - Mostly clear 10 - - - -
29/12:30pm 26.6 ESE 18 24 1014.2 - 0.0 - Partly cloudy 10 - - - -
29/11:58am 26.5 ESE 17 27 1014.3 - 0.0 - Partly cloudy - - - - -
29/11:30am 26.4 ESE 18 23 1014.4 - 0.0 - Partly cloudy - - - - -
29/11:00am 25.9 ESE 16 23 1014.5 - 3.0 Recent precip. Partly cloudy 15 - - - -
29/10:30am 23.9 ESE 17 23 1014.7 - 3.0 - Partly cloudy 10 - - - -
29/10:00am 23.8 E 21 27 1014.5 - 3.0 Showers Mostly clear 6 - - - -
29/09:47am 24.0 E 23 26 1014.4 - 2.6 - Partly cloudy 10 - - - -
29/09:30am 25.7 ESE 19 25 1014.0 - 2.6 Showers Mostly clear 9 - - - -
29/09:00am 25.7 ESE 18 24 1013.6 - 2.6 - Partly cloudy 10 - - - -
29/08:30am 25.5 ESE 15 20 1013.4 - 2.6 - Partly cloudy 10 - - - -
29/08:00am 25.5 ESE 19 26 1013.0 - 2.6 Recent precip. Mostly cloudy 12 - - - -
29/07:30am 24.2 ESE 16 21 1012.9 - 2.6 - Partly cloudy 10 - - - -
29/07:15am 24.2 E 23 28 1012.8 - 2.6 Showers Partly cloudy 10 - - - -
29/07:00am 25.5 ESE 18 24 1012.6 - 2.6 - Mostly clear 10 - - - -
29/06:30am 25.4 ESE 19 24 1012.5 - 2.6 - Partly cloudy - - - - -
29/06:00am 25.3 ESE 19 24 1012.5 - 2.6 - Partly cloudy - - - - -
29/05:30am 25.4 ESE 18 25 1012.5 - 2.6 - Partly cloudy - - - - -
29/05:00am 25.0 ESE 17 22 1012.5 - 2.6 - Partly cloudy - - - - -
29/04:30am 24.7 ESE 17 24 1012.6 - 2.6 - Partly cloudy - - - - -
29/04:00am 25.2 ESE 17 23 1012.7 - 2.6 - Partly cloudy - - - - -
29/03:30am 25.4 ESE 18 23 1013.0 - 2.6 - Partly cloudy - - - - -
29/03:00am 25.5 ESE 19 25 1013.3 - 2.6 - Partly cloudy - - - - -
29/02:30am 25.5 ESE 19 24 1013.5 - 2.6 - Partly cloudy - - - - -
29/02:00am 25.5 ESE 18 23 1013.8 - 2.6 - - - - - - -
29/01:30am 25.7 ESE 20 26 1014.1 - 2.6 - Partly cloudy - - - - -

Other Formats:

Comma delimited format used in spreadsheet applications
http://www.bom.gov.au/fwo/IDW60701/IDW60701.96996.axf

JavaScript Object Notation format (JSON) in row-major order
http://www.bom.gov.au/fwo/IDW60701/IDW60701.96996.json